Terminal Aerodrome Forecast
Issued by NWS

Home | Current Version | Previous Version | Text Only | Print | Product List | Glossary On
Versions: 1 2 3 4 5 6 7 8 9 10 11 12 13 14 15 16 17 18 19 20 21 22 23
159
FTUS43 KAPX 122226 AAB
TAFAPN
TAF AMD
KAPN 122226Z 1222/1318 32017G27KT 5SM -SHSN BLSN SCT025 OVC040
      TEMPO 1222/1302 2SM -SHSN BLSN BKN025
     FM130500 33008KT P6SM VCSH BKN035=

USA.gov is the U.S. government's official web portal to all federal, state and local government web resources and services.